sensor_id;sensor_type;location;lat;lon;timestamp;pressure;altitude;pressure_sealevel;temperature;humidity
38197;BME280;26543;51.976;4.616;2022-09-02T00:01:42;52289.41;;;-140.72;0.00
38197;BME280;26543;51.976;4.616;2022-09-02T00:04:13;52248.81;;;-140.72;0.00
38197;BME280;26543;51.976;4.616;2022-09-02T00:06:40;52267.09;;;-140.72;0.00
38197;BME280;26543;51.976;4.616;2022-09-02T00:09:08;52295.50;;;-140.72;0.00
38197;BME280;26543;51.976;4.616;2022-09-02T00:11:36;52299.56;;;-140.72;0.00
38197;BME280;26543;51.976;4.616;2022-09-02T00:14:05;52299.56;;;-140.72;0.00
38197;BME280;26543;51.976;4.616;2022-09-02T00:16:31;52291.44;;;-140.72;0.00
38197;BME280;26543;51.976;4.616;2022-09-02T00:18:58;52281.28;;;-140.72;0.00
38197;BME280;26543;51.976;4.616;2022-09-02T00:21:25;52305.63;;;-140.72;0.00
38197;BME280;26543;51.976;4.616;2022-09-02T00:23:51;52289.41;;;-140.72;0.00
38197;BME280;26543;51.976;4.616;2022-09-02T00:26:17;52281.28;;;-140.72;0.00
38197;BME280;26543;51.976;4.616;2022-09-02T00:28:43;52283.31;;;-140.72;0.00
38197;BME280;26543;51.976;4.616;2022-09-02T00:31:09;52271.16;;;-140.72;0.00
38197;BME280;26543;51.976;4.616;2022-09-02T00:33:34;52301.59;;;-140.72;0.00
38197;BME280;26543;51.976;4.616;2022-09-02T00:36:01;52269.13;;;-140.72;0.00
38197;BME280;26543;51.976;4.616;2022-09-02T00:38:28;52258.97;;;-140.72;0.00
38197;BME280;26543;51.976;4.616;2022-09-02T00:40:56;52317.81;;;-140.72;0.00
38197;BME280;26543;51.976;4.616;2022-09-02T00:43:36;52297.53;;;-140.72;0.00
38197;BME280;26543;51.976;4.616;2022-09-02T00:46:02;52269.13;;;-140.72;0.00
38197;BME280;26543;51.976;4.616;2022-09-02T00:48:28;52277.22;;;-140.72;0.00
38197;BME280;26543;51.976;4.616;2022-09-02T00:50:53;52293.47;;;-140.72;0.00
38197;BME280;26543;51.976;4.616;2022-09-02T00:53:19;52281.28;;;-140.72;0.00
38197;BME280;26543;51.976;4.616;2022-09-02T00:55:47;52263.03;;;-140.72;0.00
38197;BME280;26543;51.976;4.616;2022-09-02T00:58:25;52313.75;;;-140.72;0.00
38197;BME280;26543;51.976;4.616;2022-09-02T01:00:54;52305.63;;;-140.72;0.00
38197;BME280;26543;51.976;4.616;2022-09-02T01:03:22;52285.34;;;-140.72;0.00
38197;BME280;26543;51.976;4.616;2022-09-02T01:05:49;52283.31;;;-140.72;0.00
38197;BME280;26543;51.976;4.616;2022-09-02T01:08:19;52267.09;;;-140.72;0.00
38197;BME280;26543;51.976;4.616;2022-09-02T01:10:46;52327.97;;;-140.72;0.00
38197;BME280;26543;51.976;4.616;2022-09-02T01:13:15;52252.88;;;-140.72;0.00
38197;BME280;26543;51.976;4.616;2022-09-02T01:15:45;52317.81;;;-140.72;0.00
38197;BME280;26543;51.976;4.616;2022-09-02T01:18:17;52299.56;;;-140.72;0.00
38197;BME280;26543;51.976;4.616;2022-09-02T01:20:44;52313.75;;;-140.72;0.00
38197;BME280;26543;51.976;4.616;2022-09-02T01:23:10;52334.03;;;-140.72;0.00
38197;BME280;26543;51.976;4.616;2022-09-02T01:25:36;52313.75;;;-140.72;0.00
38197;BME280;26543;51.976;4.616;2022-09-02T01:28:07;52258.97;;;-140.72;0.00
38197;BME280;26543;51.976;4.616;2022-09-02T01:30:35;52309.69;;;-140.72;0.00
38197;BME280;26543;51.976;4.616;2022-09-02T01:33:01;52295.50;;;-140.72;0.00
38197;BME280;26543;51.976;4.616;2022-09-02T01:35:26;52285.34;;;-140.72;0.00
38197;BME280;26543;51.976;4.616;2022-09-02T01:37:55;52281.28;;;-140.72;0.00
38197;BME280;26543;51.976;4.616;2022-09-02T01:40:21;52311.72;;;-140.72;0.00
38197;BME280;26543;51.976;4.616;2022-09-02T01:42:47;52248.81;;;-140.72;0.00
38197;BME280;26543;51.976;4.616;2022-09-02T01:45:18;52299.56;;;-140.72;0.00
38197;BME280;26543;51.976;4.616;2022-09-02T01:47:43;52336.06;;;-140.72;0.00
38197;BME280;26543;51.976;4.616;2022-09-02T01:50:10;52303.59;;;-140.72;0.00
38197;BME280;26543;51.976;4.616;2022-09-02T01:52:36;52321.88;;;-140.72;0.00
38197;BME280;26543;51.976;4.616;2022-09-02T01:55:03;52340.13;;;-140.72;0.00
38197;BME280;26543;51.976;4.616;2022-09-02T01:57:28;52295.50;;;-140.72;0.00
38197;BME280;26543;51.976;4.616;2022-09-02T01:59:54;52281.28;;;-140.72;0.00
38197;BME280;26543;51.976;4.616;2022-09-02T02:02:21;52295.50;;;-140.72;0.00
38197;BME280;26543;51.976;4.616;2022-09-02T02:04:47;52364.47;;;-140.72;0.00
38197;BME280;26543;51.976;4.616;2022-09-02T02:07:15;52346.22;;;-140.72;0.00
38197;BME280;26543;51.976;4.616;2022-09-02T02:09:41;52346.22;;;-140.72;0.00
38197;BME280;26543;51.976;4.616;2022-09-02T02:12:07;52332.03;;;-140.72;0.00
38197;BME280;26543;51.976;4.616;2022-09-02T02:14:34;52299.56;;;-140.72;0.00
38197;BME280;26543;51.976;4.616;2022-09-02T02:17:00;52346.22;;;-140.72;0.00
38197;BME280;26543;51.976;4.616;2022-09-02T02:19:26;52334.03;;;-140.72;0.00
38197;BME280;26543;51.976;4.616;2022-09-02T02:21:53;52295.50;;;-140.72;0.00
38197;BME280;26543;51.976;4.616;2022-09-02T02:24:19;52342.16;;;-140.72;0.00
38197;BME280;26543;51.976;4.616;2022-09-02T02:26:44;52327.97;;;-140.72;0.00
38197;BME280;26543;51.976;4.616;2022-09-02T02:29:10;52325.94;;;-140.72;0.00
38197;BME280;26543;51.976;4.616;2022-09-02T02:31:36;52327.97;;;-140.72;0.00
38197;BME280;26543;51.976;4.616;2022-09-02T02:34:02;52325.94;;;-140.72;0.00
38197;BME280;26543;51.976;4.616;2022-09-02T02:36:28;52338.09;;;-140.72;0.00
38197;BME280;26543;51.976;4.616;2022-09-02T02:38:53;52327.97;;;-140.72;0.00
38197;BME280;26543;51.976;4.616;2022-09-02T02:41:19;52317.81;;;-140.72;0.00
38197;BME280;26543;51.976;4.616;2022-09-02T02:43:45;52313.75;;;-140.72;0.00
38197;BME280;26543;51.976;4.616;2022-09-02T02:46:12;52293.47;;;-140.72;0.00
38197;BME280;26543;51.976;4.616;2022-09-02T02:48:38;52311.72;;;-140.72;0.00
38197;BME280;26543;51.976;4.616;2022-09-02T02:51:04;52297.53;;;-140.72;0.00
38197;BME280;26543;51.976;4.616;2022-09-02T02:53:30;52352.31;;;-140.72;0.00
38197;BME280;26543;51.976;4.616;2022-09-02T02:55:58;52301.59;;;-140.72;0.00
38197;BME280;26543;51.976;4.616;2022-09-02T02:58:24;52354.34;;;-140.72;0.00
38197;BME280;26543;51.976;4.616;2022-09-02T03:00:49;52321.88;;;-140.72;0.00
38197;BME280;26543;51.976;4.616;2022-09-02T03:03:15;52321.88;;;-140.72;0.00
38197;BME280;26543;51.976;4.616;2022-09-02T03:05:45;52303.59;;;-140.72;0.00
38197;BME280;26543;51.976;4.616;2022-09-02T03:08:11;52352.31;;;-140.72;0.00
38197;BME280;26543;51.976;4.616;2022-09-02T03:10:38;52336.06;;;-140.72;0.00
38197;BME280;26543;51.976;4.616;2022-09-02T03:13:07;52281.28;;;-140.72;0.00
38197;BME280;26543;51.976;4.616;2022-09-02T03:15:34;52378.69;;;-140.72;0.00
38197;BME280;26543;51.976;4.616;2022-09-02T03:18:00;52352.31;;;-140.72;0.00
38197;BME280;26543;51.976;4.616;2022-09-02T03:20:26;52366.50;;;-140.72;0.00
38197;BME280;26543;51.976;4.616;2022-09-02T03:22:54;52323.91;;;-140.72;0.00
38197;BME280;26543;51.976;4.616;2022-09-02T03:25:21;52323.91;;;-140.72;0.00
38197;BME280;26543;51.976;4.616;2022-09-02T03:27:47;52291.44;;;-140.72;0.00
38197;BME280;26543;51.976;4.616;2022-09-02T03:30:20;52346.22;;;-140.72;0.00
38197;BME280;26543;51.976;4.616;2022-09-02T03:32:45;52338.09;;;-140.72;0.00
38197;BME280;26543;51.976;4.616;2022-09-02T03:35:14;52330.00;;;-140.72;0.00
38197;BME280;26543;51.976;4.616;2022-09-02T03:37:40;52317.81;;;-140.72;0.00
38197;BME280;26543;51.976;4.616;2022-09-02T03:40:09;52354.34;;;-140.72;0.00
38197;BME280;26543;51.976;4.616;2022-09-02T03:42:34;52327.97;;;-140.72;0.00
38197;BME280;26543;51.976;4.616;2022-09-02T03:45:01;52334.03;;;-140.72;0.00
38197;BME280;26543;51.976;4.616;2022-09-02T03:47:26;52398.97;;;-140.72;0.00
38197;BME280;26543;51.976;4.616;2022-09-02T03:49:54;52332.03;;;-140.72;0.00
38197;BME280;26543;51.976;4.616;2022-09-02T03:52:19;52354.34;;;-140.72;0.00
38197;BME280;26543;51.976;4.616;2022-09-02T03:54:47;52321.88;;;-140.72;0.00
38197;BME280;26543;51.976;4.616;2022-09-02T03:57:13;52344.19;;;-140.72;0.00
38197;BME280;26543;51.976;4.616;2022-09-02T03:59:39;52358.41;;;-140.72;0.00
38197;BME280;26543;51.976;4.616;2022-09-02T04:02:04;52330.00;;;-140.72;0.00
38197;BME280;26543;51.976;4.616;2022-09-02T04:04:31;52376.66;;;-140.72;0.00
38197;BME280;26543;51.976;4.616;2022-09-02T04:06:58;52321.88;;;-140.72;0.00
38197;BME280;26543;51.976;4.616;2022-09-02T04:09:24;52330.00;;;-140.72;0.00
38197;BME280;26543;51.976;4.616;2022-09-02T04:11:50;52311.72;;;-140.72;0.00
38197;BME280;26543;51.976;4.616;2022-09-02T04:14:15;52330.00;;;-140.72;0.00
38197;BME280;26543;51.976;4.616;2022-09-02T04:16:41;52352.31;;;-140.72;0.00
38197;BME280;26543;51.976;4.616;2022-09-02T04:19:07;52340.13;;;-140.72;0.00
38197;BME280;26543;51.976;4.616;2022-09-02T04:21:36;52291.44;;;-140.72;0.00
38197;BME280;26543;51.976;4.616;2022-09-02T04:24:03;52346.22;;;-140.72;0.00
38197;BME280;26543;51.976;4.616;2022-09-02T04:26:29;52362.44;;;-140.72;0.00
38197;BME280;26543;51.976;4.616;2022-09-02T04:28:54;52358.41;;;-140.72;0.00
38197;BME280;26543;51.976;4.616;2022-09-02T04:31:21;52356.38;;;-140.72;0.00
38197;BME280;26543;51.976;4.616;2022-09-02T04:33:50;52362.44;;;-140.72;0.00
38197;BME280;26543;51.976;4.616;2022-09-02T04:36:17;52279.25;;;-140.72;0.00
38197;BME280;26543;51.976;4.616;2022-09-02T04:38:43;52321.88;;;-140.72;0.00
38197;BME280;26543;51.976;4.616;2022-09-02T04:41:16;52330.00;;;-140.72;0.00
38197;BME280;26543;51.976;4.616;2022-09-02T04:43:42;52340.13;;;-140.72;0.00
38197;BME280;26543;51.976;4.616;2022-09-02T04:46:10;52344.19;;;-140.72;0.00
38197;BME280;26543;51.976;4.616;2022-09-02T04:48:37;52370.56;;;-140.72;0.00
38197;BME280;26543;51.976;4.616;2022-09-02T04:51:05;52348.25;;;-140.72;0.00
38197;BME280;26543;51.976;4.616;2022-09-02T04:53:31;52350.28;;;-140.72;0.00
38197;BME280;26543;51.976;4.616;2022-09-02T04:55:57;52354.34;;;-140.72;0.00
38197;BME280;26543;51.976;4.616;2022-09-02T04:58:22;52336.06;;;-140.72;0.00
38197;BME280;26543;51.976;4.616;2022-09-02T05:00:47;52330.00;;;-140.72;0.00
38197;BME280;26543;51.976;4.616;2022-09-02T05:03:13;52336.06;;;-140.72;0.00
38197;BME280;26543;51.976;4.616;2022-09-02T05:05:39;52362.44;;;-140.72;0.00
38197;BME280;26543;51.976;4.616;2022-09-02T05:08:04;52342.16;;;-140.72;0.00
38197;BME280;26543;51.976;4.616;2022-09-02T05:10:30;52374.63;;;-140.72;0.00
38197;BME280;26543;51.976;4.616;2022-09-02T05:12:57;52344.19;;;-140.72;0.00
38197;BME280;26543;51.976;4.616;2022-09-02T05:15:23;52370.56;;;-140.72;0.00
38197;BME280;26543;51.976;4.616;2022-09-02T05:17:49;52344.19;;;-140.72;0.00
38197;BME280;26543;51.976;4.616;2022-09-02T05:20:15;52346.22;;;-140.72;0.00
38197;BME280;26543;51.976;4.616;2022-09-02T05:22:40;52350.28;;;-140.72;0.00
38197;BME280;26543;51.976;4.616;2022-09-02T05:25:07;52327.97;;;-140.72;0.00
38197;BME280;26543;51.976;4.616;2022-09-02T05:27:34;52346.22;;;-140.72;0.00
38197;BME280;26543;51.976;4.616;2022-09-02T05:30:00;52323.91;;;-140.72;0.00
38197;BME280;26543;51.976;4.616;2022-09-02T05:32:26;52301.59;;;-140.72;0.00
38197;BME280;26543;51.976;4.616;2022-09-02T05:34:52;52350.28;;;-140.72;0.00
38197;BME280;26543;51.976;4.616;2022-09-02T05:37:18;52362.44;;;-140.72;0.00
38197;BME280;26543;51.976;4.616;2022-09-02T05:39:44;52354.34;;;-140.72;0.00
38197;BME280;26543;51.976;4.616;2022-09-02T05:42:09;52330.00;;;-140.72;0.00
38197;BME280;26543;51.976;4.616;2022-09-02T05:44:35;52360.44;;;-140.72;0.00
38197;BME280;26543;51.976;4.616;2022-09-02T05:47:01;52344.19;;;-140.72;0.00
38197;BME280;26543;51.976;4.616;2022-09-02T05:49:27;52342.16;;;-140.72;0.00
38197;BME280;26543;51.976;4.616;2022-09-02T05:51:56;52317.81;;;-140.72;0.00
38197;BME280;26543;51.976;4.616;2022-09-02T05:54:23;52354.34;;;-140.72;0.00
38197;BME280;26543;51.976;4.616;2022-09-02T05:56:52;52360.44;;;-140.72;0.00
38197;BME280;26543;51.976;4.616;2022-09-02T05:59:21;52384.78;;;-140.72;0.00
38197;BME280;26543;51.976;4.616;2022-09-02T06:01:47;52354.34;;;-140.72;0.00
38197;BME280;26543;51.976;4.616;2022-09-02T06:04:14;52319.84;;;-140.72;0.00
38197;BME280;26543;51.976;4.616;2022-09-02T06:06:40;52311.72;;;-140.72;0.00
38197;BME280;26543;51.976;4.616;2022-09-02T06:09:07;52354.34;;;-140.72;0.00
38197;BME280;26543;51.976;4.616;2022-09-02T06:11:38;52309.69;;;-140.72;0.00
38197;BME280;26543;51.976;4.616;2022-09-02T06:14:05;52374.63;;;-140.72;0.00
38197;BME280;26543;51.976;4.616;2022-09-02T06:16:32;52366.50;;;-140.72;0.00
38197;BME280;26543;51.976;4.616;2022-09-02T06:18:58;52344.19;;;-140.72;0.00
38197;BME280;26543;51.976;4.616;2022-09-02T06:21:24;52346.22;;;-140.72;0.00
38197;BME280;26543;51.976;4.616;2022-09-02T06:23:49;52358.41;;;-140.72;0.00
38197;BME280;26543;51.976;4.616;2022-09-02T06:26:15;52325.94;;;-140.72;0.00
38197;BME280;26543;51.976;4.616;2022-09-02T06:28:41;52309.69;;;-140.72;0.00
38197;BME280;26543;51.976;4.616;2022-09-02T06:31:20;52321.88;;;-140.72;0.00
38197;BME280;26543;51.976;4.616;2022-09-02T06:33:47;52366.50;;;-140.72;0.00
38197;BME280;26543;51.976;4.616;2022-09-02T06:36:16;52301.59;;;-140.72;0.00
38197;BME280;26543;51.976;4.616;2022-09-02T06:38:46;52321.88;;;-140.72;0.00
38197;BME280;26543;51.976;4.616;2022-09-02T06:41:15;52354.34;;;-140.72;0.00
38197;BME280;26543;51.976;4.616;2022-09-02T06:43:44;52327.97;;;-140.72;0.00
38197;BME280;26543;51.976;4.616;2022-09-02T06:46:18;52342.16;;;-140.72;0.00
38197;BME280;26543;51.976;4.616;2022-09-02T06:48:44;52323.91;;;-140.72;0.00
38197;BME280;26543;51.976;4.616;2022-09-02T06:51:22;52321.88;;;-140.72;0.00
38197;BME280;26543;51.976;4.616;2022-09-02T06:53:48;52342.16;;;-140.72;0.00
38197;BME280;26543;51.976;4.616;2022-09-02T06:56:13;52305.63;;;-140.72;0.00
38197;BME280;26543;51.976;4.616;2022-09-02T06:58:40;52289.41;;;-140.72;0.00
38197;BME280;26543;51.976;4.616;2022-09-02T07:01:05;52340.13;;;-140.72;0.00
38197;BME280;26543;51.976;4.616;2022-09-02T07:03:32;52291.44;;;-140.72;0.00
38197;BME280;26543;51.976;4.616;2022-09-02T07:06:16;52307.66;;;-140.72;0.00
38197;BME280;26543;51.976;4.616;2022-09-02T07:08:42;52281.28;;;-140.72;0.00
38197;BME280;26543;51.976;4.616;2022-09-02T07:11:17;52287.38;;;-140.72;0.00
38197;BME280;26543;51.976;4.616;2022-09-02T07:13:43;52297.53;;;-140.72;0.00
38197;BME280;26543;51.976;4.616;2022-09-02T07:16:08;52305.63;;;-140.72;0.00
38197;BME280;26543;51.976;4.616;2022-09-02T07:18:34;52273.19;;;-140.72;0.00
38197;BME280;26543;51.976;4.616;2022-09-02T07:21:00;52289.41;;;-140.72;0.00
38197;BME280;26543;51.976;4.616;2022-09-02T07:23:26;52265.06;;;-140.72;0.00
38197;BME280;26543;51.976;4.616;2022-09-02T07:25:51;52301.59;;;-140.72;0.00
38197;BME280;26543;51.976;4.616;2022-09-02T07:28:17;52291.44;;;-140.72;0.00
38197;BME280;26543;51.976;4.616;2022-09-02T07:30:43;52297.53;;;-140.72;0.00
38197;BME280;26543;51.976;4.616;2022-09-02T07:33:10;52261.00;;;-140.72;0.00
38197;BME280;26543;51.976;4.616;2022-09-02T07:35:39;52242.75;;;-140.72;0.00
38197;BME280;26543;51.976;4.616;2022-09-02T07:38:05;52273.19;;;-140.72;0.00
38197;BME280;26543;51.976;4.616;2022-09-02T07:40:32;52271.16;;;-140.72;0.00
38197;BME280;26543;51.976;4.616;2022-09-02T07:43:01;52261.00;;;-140.72;0.00
38197;BME280;26543;51.976;4.616;2022-09-02T07:45:28;52283.31;;;-140.72;0.00
38197;BME280;26543;51.976;4.616;2022-09-02T07:47:53;52248.81;;;-140.72;0.00
38197;BME280;26543;51.976;4.616;2022-09-02T07:50:19;52252.88;;;-140.72;0.00
38197;BME280;26543;51.976;4.616;2022-09-02T07:52:45;52232.59;;;-140.72;0.00
38197;BME280;26543;51.976;4.616;2022-09-02T07:55:11;52275.19;;;-140.72;0.00
38197;BME280;26543;51.976;4.616;2022-09-02T07:57:36;52283.31;;;-140.72;0.00
38197;BME280;26543;51.976;4.616;2022-09-02T08:00:03;52208.25;;;-140.72;0.00
38197;BME280;26543;51.976;4.616;2022-09-02T08:02:29;52200.13;;;-140.72;0.00
38197;BME280;26543;51.976;4.616;2022-09-02T08:04:55;52194.03;;;-140.72;0.00
38197;BME280;26543;51.976;4.616;2022-09-02T08:07:20;52244.78;;;-140.72;0.00
38197;BME280;26543;51.976;4.616;2022-09-02T08:09:49;52222.44;;;-140.72;0.00
38197;BME280;26543;51.976;4.616;2022-09-02T08:12:15;52196.06;;;-140.72;0.00
38197;BME280;26543;51.976;4.616;2022-09-02T08:14:40;52210.28;;;-140.72;0.00
38197;BME280;26543;51.976;4.616;2022-09-02T08:17:05;52218.38;;;-140.72;0.00
38197;BME280;26543;51.976;4.616;2022-09-02T08:19:31;52189.97;;;-140.72;0.00
38197;BME280;26543;51.976;4.616;2022-09-02T08:22:04;52173.75;;;-140.72;0.00
38197;BME280;26543;51.976;4.616;2022-09-02T08:24:32;52147.38;;;-140.72;0.00
38197;BME280;26543;51.976;4.616;2022-09-02T08:26:58;52212.31;;;-140.72;0.00
38197;BME280;26543;51.976;4.616;2022-09-02T08:29:27;52194.03;;;-140.72;0.00
38197;BME280;26543;51.976;4.616;2022-09-02T08:31:52;52202.16;;;-140.72;0.00
38197;BME280;26543;51.976;4.616;2022-09-02T08:34:18;52161.56;;;-140.72;0.00
38197;BME280;26543;51.976;4.616;2022-09-02T08:36:43;52167.66;;;-140.72;0.00
38197;BME280;26543;51.976;4.616;2022-09-02T08:39:09;52194.03;;;-140.72;0.00
38197;BME280;26543;51.976;4.616;2022-09-02T08:44:11;52185.94;;;-140.72;0.00
38197;BME280;26543;51.976;4.616;2022-09-02T08:46:41;52202.16;;;-140.72;0.00
38197;BME280;26543;51.976;4.616;2022-09-02T08:49:10;52196.06;;;-140.72;0.00
38197;BME280;26543;51.976;4.616;2022-09-02T08:51:45;52167.66;;;-140.72;0.00
38197;BME280;26543;51.976;4.616;2022-09-02T08:56:52;52183.91;;;-140.72;0.00
38197;BME280;26543;51.976;4.616;2022-09-02T08:59:21;52192.00;;;-140.72;0.00
38197;BME280;26543;51.976;4.616;2022-09-02T09:09:42;52177.81;;;-140.72;0.00
38197;BME280;26543;51.976;4.616;2022-09-02T09:12:14;52179.84;;;-140.72;0.00
38197;BME280;26543;51.976;4.616;2022-09-02T09:17:25;52145.34;;;-140.72;0.00
38197;BME280;26543;51.976;4.616;2022-09-02T09:19:54;52080.41;;;-140.72;0.00
38197;BME280;26543;51.976;4.616;2022-09-02T09:22:32;52078.38;;;-140.72;0.00
38197;BME280;26543;51.976;4.616;2022-09-02T09:24:58;52102.75;;;-140.72;0.00
38197;BME280;26543;51.976;4.616;2022-09-02T09:27:24;52060.13;;;-140.72;0.00
38197;BME280;26543;51.976;4.616;2022-09-02T09:29:51;52082.44;;;-140.72;0.00
38197;BME280;26543;51.976;4.616;2022-09-02T09:32:32;52080.41;;;-140.72;0.00
38197;BME280;26543;51.976;4.616;2022-09-02T09:34:59;52035.78;;;-140.72;0.00
38197;BME280;26543;51.976;4.616;2022-09-02T09:39:54;51989.13;;;-140.72;0.00
38197;BME280;26543;51.976;4.616;2022-09-02T09:42:30;51999.25;;;-140.72;0.00
38197;BME280;26543;51.976;4.616;2022-09-02T09:44:56;51964.78;;;-140.72;0.00
38197;BME280;26543;51.976;4.616;2022-09-02T09:47:23;51970.84;;;-140.72;0.00
38197;BME280;26543;51.976;4.616;2022-09-02T09:50:15;51983.03;;;-140.72;0.00
38197;BME280;26543;51.976;4.616;2022-09-02T09:52:40;51954.63;;;-140.72;0.00
38197;BME280;26543;51.976;4.616;2022-09-02T09:55:11;51948.53;;;-140.72;0.00
38197;BME280;26543;51.976;4.616;2022-09-02T09:57:39;51938.41;;;-140.72;0.00
38197;BME280;26543;51.976;4.616;2022-09-02T10:00:20;51932.31;;;-140.72;0.00
38197;BME280;26543;51.976;4.616;2022-09-02T10:02:50;51940.41;;;-140.72;0.00
38197;BME280;26543;51.976;4.616;2022-09-02T10:05:37;51948.53;;;-140.72;0.00
38197;BME280;26543;51.976;4.616;2022-09-02T10:08:27;51905.94;;;-140.72;0.00
38197;BME280;26543;51.976;4.616;2022-09-02T10:10:59;51885.66;;;-140.72;0.00
38197;BME280;26543;51.976;4.616;2022-09-02T10:13:29;51901.88;;;-140.72;0.00
38197;BME280;26543;51.976;4.616;2022-09-02T10:18:44;51843.03;;;-140.72;0.00
38197;BME280;26543;51.976;4.616;2022-09-02T10:21:23;51853.19;;;-140.72;0.00
38197;BME280;26543;51.976;4.616;2022-09-02T10:26:40;51814.63;;;-140.72;0.00
38197;BME280;26543;51.976;4.616;2022-09-02T10:29:35;51838.97;;;-140.72;0.00
38197;BME280;26543;51.976;4.616;2022-09-02T10:34:44;51849.13;;;-140.72;0.00
38197;BME280;26543;51.976;4.616;2022-09-02T10:37:18;51822.75;;;-140.72;0.00
38197;BME280;26543;51.976;4.616;2022-09-02T10:40:07;51770.00;;;-140.72;0.00
38197;BME280;26543;51.976;4.616;2022-09-02T10:45:47;51721.31;;;-140.72;0.00
38197;BME280;26543;51.976;4.616;2022-09-02T10:56:33;51705.06;;;-140.72;0.00
38197;BME280;26543;51.976;4.616;2022-09-02T10:59:24;51707.09;;;-140.72;0.00
38197;BME280;26543;51.976;4.616;2022-09-02T11:02:23;51686.81;;;-140.72;0.00
38197;BME280;26543;51.976;4.616;2022-09-02T11:05:04;51623.94;;;-140.72;0.00
38197;BME280;26543;51.976;4.616;2022-09-02T11:07:37;51625.97;;;-140.72;0.00
38197;BME280;26543;51.976;4.616;2022-09-02T11:10:24;51636.09;;;-140.72;0.00
38197;BME280;26543;51.976;4.616;2022-09-02T11:13:05;51530.59;;;-140.72;0.00
38197;BME280;26543;51.976;4.616;2022-09-02T11:15:43;51587.41;;;-140.72;0.00
38197;BME280;26543;51.976;4.616;2022-09-02T11:18:33;51585.38;;;-140.72;0.00
38197;BME280;26543;51.976;4.616;2022-09-02T11:24:30;51530.59;;;-140.72;0.00
38197;BME280;26543;51.976;4.616;2022-09-02T11:30:01;51601.63;;;-140.72;0.00
38197;BME280;26543;51.976;4.616;2022-09-02T11:32:43;51587.41;;;-140.72;0.00
38197;BME280;26543;51.976;4.616;2022-09-02T11:35:22;51587.41;;;-140.72;0.00
38197;BME280;26543;51.976;4.616;2022-09-02T11:40:26;51587.41;;;-140.72;0.00
38197;BME280;26543;51.976;4.616;2022-09-02T11:43:12;51494.09;;;-140.72;0.00
38197;BME280;26543;51.976;4.616;2022-09-02T11:46:01;51512.34;;;-140.72;0.00
38197;BME280;26543;51.976;4.616;2022-09-02T11:53:45;51461.63;;;-140.72;0.00
38197;BME280;26543;51.976;4.616;2022-09-02T11:56:15;51502.22;;;-140.72;0.00
38197;BME280;26543;51.976;4.616;2022-09-02T11:58:44;51473.81;;;-140.72;0.00
38197;BME280;26543;51.976;4.616;2022-09-02T12:01:36;51508.28;;;-140.72;0.00
38197;BME280;26543;51.976;4.616;2022-09-02T12:04:03;51477.88;;;-140.72;0.00
38197;BME280;26543;51.976;4.616;2022-09-02T12:06:29;51451.50;;;-140.72;0.00
38197;BME280;26543;51.976;4.616;2022-09-02T12:08:57;51455.56;;;-140.72;0.00
38197;BME280;26543;51.976;4.616;2022-09-02T12:11:39;51400.78;;;-140.72;0.00
38197;BME280;26543;51.976;4.616;2022-09-02T12:14:08;51417.00;;;-140.72;0.00
38197;BME280;26543;51.976;4.616;2022-09-02T12:16:58;51437.28;;;-140.72;0.00
38197;BME280;26543;51.976;4.616;2022-09-02T12:19:28;51380.50;;;-140.72;0.00
38197;BME280;26543;51.976;4.616;2022-09-02T12:25:01;51339.91;;;-140.72;0.00
38197;BME280;26543;51.976;4.616;2022-09-02T12:27:31;51368.31;;;-140.72;0.00
38197;BME280;26543;51.976;4.616;2022-09-02T12:29:58;51360.22;;;-140.72;0.00
38197;BME280;26543;51.976;4.616;2022-09-02T12:40:49;51295.28;;;-140.72;0.00
38197;BME280;26543;51.976;4.616;2022-09-02T12:46:05;51352.09;;;-140.72;0.00
38197;BME280;26543;51.976;4.616;2022-09-02T12:48:42;51289.19;;;-140.72;0.00
38197;BME280;26543;51.976;4.616;2022-09-02T12:51:09;51362.22;;;-140.72;0.00
38197;BME280;26543;51.976;4.616;2022-09-02T12:53:42;51327.75;;;-140.72;0.00
38197;BME280;26543;51.976;4.616;2022-09-02T12:56:23;51451.50;;;-140.72;0.00
38197;BME280;26543;51.976;4.616;2022-09-02T12:58:53;51380.50;;;-140.72;0.00
38197;BME280;26543;51.976;4.616;2022-09-02T13:01:44;51431.19;;;-140.72;0.00
38197;BME280;26543;51.976;4.616;2022-09-02T13:04:42;51441.34;;;-140.72;0.00
38197;BME280;26543;51.976;4.616;2022-09-02T13:34:45;51836.94;;;-140.72;0.00
38197;BME280;26543;51.976;4.616;2022-09-02T13:37:34;51830.88;;;-140.72;0.00
38197;BME280;26543;51.976;4.616;2022-09-02T13:40:17;51851.16;;;-140.72;0.00
38197;BME280;26543;51.976;4.616;2022-09-02T13:42:57;51863.31;;;-140.72;0.00
38197;BME280;26543;51.976;4.616;2022-09-02T13:45:25;51869.41;;;-140.72;0.00
38197;BME280;26543;51.976;4.616;2022-09-02T13:47:53;51916.06;;;-140.72;0.00
38197;BME280;26543;51.976;4.616;2022-09-02T13:50:21;51907.97;;;-140.72;0.00
38197;BME280;26543;51.976;4.616;2022-09-02T13:53:07;51912.03;;;-140.72;0.00
38197;BME280;26543;51.976;4.616;2022-09-02T13:55:38;51928.25;;;-140.72;0.00
38197;BME280;26543;51.976;4.616;2022-09-02T13:58:06;51887.66;;;-140.72;0.00
38197;BME280;26543;51.976;4.616;2022-09-02T14:00:38;51834.91;;;-140.72;0.00
38197;BME280;26543;51.976;4.616;2022-09-02T14:05:31;51910.00;;;-140.72;0.00
38197;BME280;26543;51.976;4.616;2022-09-02T14:07:59;51887.66;;;-140.72;0.00
38197;BME280;26543;51.976;4.616;2022-09-02T14:10:29;51889.69;;;-140.72;0.00
38197;BME280;26543;51.976;4.616;2022-09-02T14:12:56;51891.72;;;-140.72;0.00
38197;BME280;26543;51.976;4.616;2022-09-02T14:15:27;51918.09;;;-140.72;0.00
38197;BME280;26543;51.976;4.616;2022-09-02T14:18:16;51903.91;;;-140.72;0.00
38197;BME280;26543;51.976;4.616;2022-09-02T14:23:47;51944.47;;;-140.72;0.00
38197;BME280;26543;51.976;4.616;2022-09-02T14:26:19;51895.78;;;-140.72;0.00
38197;BME280;26543;51.976;4.616;2022-09-02T14:28:50;51907.97;;;-140.72;0.00
38197;BME280;26543;51.976;4.616;2022-09-02T14:31:24;51934.34;;;-140.72;0.00
38197;BME280;26543;51.976;4.616;2022-09-02T14:33:50;51942.44;;;-140.72;0.00
38197;BME280;26543;51.976;4.616;2022-09-02T14:41:53;51924.19;;;-140.72;0.00
38197;BME280;26543;51.976;4.616;2022-09-02T14:44:27;51903.91;;;-140.72;0.00
38197;BME280;26543;51.976;4.616;2022-09-02T14:46:58;51871.44;;;-140.72;0.00